sensor_id;sensor_type;location;lat;lon;timestamp;P1;durP1;ratioP1;P2;durP2;ratioP2
13014;SDS011;6573;57.696;11.950;2022-12-11T00:01:12;5.27;;;4.63;;
13014;SDS011;6573;57.696;11.950;2022-12-11T00:03:42;4.47;;;4.07;;
13014;SDS011;6573;57.696;11.950;2022-12-11T00:06:11;6.33;;;4.63;;
13014;SDS011;6573;57.696;11.950;2022-12-11T00:08:41;5.50;;;4.23;;
13014;SDS011;6573;57.696;11.950;2022-12-11T00:11:11;5.03;;;4.53;;
13014;SDS011;6573;57.696;11.950;2022-12-11T00:13:42;5.90;;;5.03;;
13014;SDS011;6573;57.696;11.950;2022-12-11T00:16:10;7.43;;;5.10;;
13014;SDS011;6573;57.696;11.950;2022-12-11T00:18:39;5.60;;;5.00;;
13014;SDS011;6573;57.696;11.950;2022-12-11T00:21:09;6.55;;;5.53;;
13014;SDS011;6573;57.696;11.950;2022-12-11T00:23:39;7.07;;;5.60;;
13014;SDS011;6573;57.696;11.950;2022-12-11T00:26:08;5.47;;;4.97;;
13014;SDS011;6573;57.696;11.950;2022-12-11T00:28:39;6.97;;;5.10;;
13014;SDS011;6573;57.696;11.950;2022-12-11T00:31:11;5.60;;;4.73;;
13014;SDS011;6573;57.696;11.950;2022-12-11T00:33:41;5.63;;;4.83;;
13014;SDS011;6573;57.696;11.950;2022-12-11T00:36:11;6.20;;;4.20;;
13014;SDS011;6573;57.696;11.950;2022-12-11T00:38:40;7.00;;;4.80;;
13014;SDS011;6573;57.696;11.950;2022-12-11T00:41:09;7.03;;;4.87;;
13014;SDS011;6573;57.696;11.950;2022-12-11T00:43:38;5.30;;;4.80;;
13014;SDS011;6573;57.696;11.950;2022-12-11T00:46:07;5.63;;;4.80;;
13014;SDS011;6573;57.696;11.950;2022-12-11T00:48:37;6.53;;;5.40;;
13014;SDS011;6573;57.696;11.950;2022-12-11T00:51:05;6.20;;;5.30;;
13014;SDS011;6573;57.696;11.950;2022-12-11T00:53:34;6.27;;;4.70;;
13014;SDS011;6573;57.696;11.950;2022-12-11T00:56:07;6.67;;;5.40;;
13014;SDS011;6573;57.696;11.950;2022-12-11T00:58:37;7.67;;;5.70;;
13014;SDS011;6573;57.696;11.950;2022-12-11T01:01:06;6.30;;;5.67;;
13014;SDS011;6573;57.696;11.950;2022-12-11T01:03:36;6.17;;;5.57;;
13014;SDS011;6573;57.696;11.950;2022-12-11T01:06:06;6.37;;;5.50;;
13014;SDS011;6573;57.696;11.950;2022-12-11T01:08:35;8.03;;;6.03;;
13014;SDS011;6573;57.696;11.950;2022-12-11T01:11:05;7.07;;;6.37;;
13014;SDS011;6573;57.696;11.950;2022-12-11T01:13:33;11.83;;;7.03;;
13014;SDS011;6573;57.696;11.950;2022-12-11T01:16:05;8.90;;;7.40;;
13014;SDS011;6573;57.696;11.950;2022-12-11T01:18:34;9.07;;;5.93;;
13014;SDS011;6573;57.696;11.950;2022-12-11T01:21:07;9.23;;;6.33;;
13014;SDS011;6573;57.696;11.950;2022-12-11T01:23:37;26.10;;;7.53;;
13014;SDS011;6573;57.696;11.950;2022-12-11T01:26:07;10.10;;;7.50;;
13014;SDS011;6573;57.696;11.950;2022-12-11T01:28:36;8.45;;;7.32;;
13014;SDS011;6573;57.696;11.950;2022-12-11T01:31:06;10.25;;;6.35;;
13014;SDS011;6573;57.696;11.950;2022-12-11T01:33:35;9.10;;;8.03;;
13014;SDS011;6573;57.696;11.950;2022-12-11T01:36:06;8.93;;;8.03;;
13014;SDS011;6573;57.696;11.950;2022-12-11T01:38:37;9.90;;;8.13;;
13014;SDS011;6573;57.696;11.950;2022-12-11T01:41:08;13.93;;;8.77;;
13014;SDS011;6573;57.696;11.950;2022-12-11T01:46:28;7.78;;;7.07;;
13014;SDS011;6573;57.696;11.950;2022-12-11T01:48:58;13.30;;;7.70;;
13014;SDS011;6573;57.696;11.950;2022-12-11T01:51:30;12.63;;;7.93;;
13014;SDS011;6573;57.696;11.950;2022-12-11T01:54:01;9.80;;;7.00;;
13014;SDS011;6573;57.696;11.950;2022-12-11T01:56:34;11.73;;;8.37;;
13014;SDS011;6573;57.696;11.950;2022-12-11T01:59:04;8.37;;;7.57;;
13014;SDS011;6573;57.696;11.950;2022-12-11T02:01:36;9.93;;;8.23;;
13014;SDS011;6573;57.696;11.950;2022-12-11T02:04:08;9.53;;;8.23;;
13014;SDS011;6573;57.696;11.950;2022-12-11T02:06:39;9.20;;;8.20;;
13014;SDS011;6573;57.696;11.950;2022-12-11T02:09:10;11.03;;;7.87;;
13014;SDS011;6573;57.696;11.950;2022-12-11T02:11:43;10.10;;;8.30;;
13014;SDS011;6573;57.696;11.950;2022-12-11T02:14:22;9.17;;;8.10;;
13014;SDS011;6573;57.696;11.950;2022-12-11T02:16:57;9.00;;;8.10;;
13014;SDS011;6573;57.696;11.950;2022-12-11T02:19:37;8.73;;;7.82;;
13014;SDS011;6573;57.696;11.950;2022-12-11T02:22:25;9.00;;;8.05;;
13014;SDS011;6573;57.696;11.950;2022-12-11T02:25:02;8.82;;;6.90;;
13014;SDS011;6573;57.696;11.950;2022-12-11T02:27:39;9.10;;;7.70;;
13014;SDS011;6573;57.696;11.950;2022-12-11T02:30:13;8.40;;;6.83;;
13014;SDS011;6573;57.696;11.950;2022-12-11T02:32:44;8.20;;;7.40;;
13014;SDS011;6573;57.696;11.950;2022-12-11T02:35:16;10.83;;;7.80;;
13014;SDS011;6573;57.696;11.950;2022-12-11T02:37:50;8.57;;;6.73;;
13014;SDS011;6573;57.696;11.950;2022-12-11T02:40:25;8.75;;;7.82;;
13014;SDS011;6573;57.696;11.950;2022-12-11T02:42:58;7.90;;;6.67;;
13014;SDS011;6573;57.696;11.950;2022-12-11T02:45:31;8.87;;;6.57;;
13014;SDS011;6573;57.696;11.950;2022-12-11T02:48:02;10.60;;;7.80;;
13014;SDS011;6573;57.696;11.950;2022-12-11T02:50:33;10.10;;;7.53;;
13014;SDS011;6573;57.696;11.950;2022-12-11T02:53:04;10.40;;;7.27;;
13014;SDS011;6573;57.696;11.950;2022-12-11T02:55:34;8.97;;;6.83;;
13014;SDS011;6573;57.696;11.950;2022-12-11T02:58:06;8.10;;;7.30;;
13014;SDS011;6573;57.696;11.950;2022-12-11T03:00:41;8.03;;;7.23;;
13014;SDS011;6573;57.696;11.950;2022-12-11T03:03:10;7.90;;;7.10;;
13014;SDS011;6573;57.696;11.950;2022-12-11T03:05:39;9.33;;;8.00;;
13014;SDS011;6573;57.696;11.950;2022-12-11T03:08:08;7.67;;;6.93;;
13014;SDS011;6573;57.696;11.950;2022-12-11T03:10:37;7.93;;;7.13;;
13014;SDS011;6573;57.696;11.950;2022-12-11T03:13:05;7.47;;;6.07;;
13014;SDS011;6573;57.696;11.950;2022-12-11T03:15:35;7.25;;;6.55;;
13014;SDS011;6573;57.696;11.950;2022-12-11T03:18:11;8.57;;;6.13;;
13014;SDS011;6573;57.696;11.950;2022-12-11T03:20:46;7.83;;;6.07;;
13014;SDS011;6573;57.696;11.950;2022-12-11T03:23:25;7.60;;;5.93;;
13014;SDS011;6573;57.696;11.950;2022-12-11T03:26:00;6.93;;;6.23;;
13014;SDS011;6573;57.696;11.950;2022-12-11T03:28:33;6.97;;;6.33;;
13014;SDS011;6573;57.696;11.950;2022-12-11T03:31:07;6.80;;;5.28;;
13014;SDS011;6573;57.696;11.950;2022-12-11T03:33:41;7.13;;;6.43;;
13014;SDS011;6573;57.696;11.950;2022-12-11T03:36:13;6.87;;;6.17;;
13014;SDS011;6573;57.696;11.950;2022-12-11T03:38:48;6.43;;;5.83;;
13014;SDS011;6573;57.696;11.950;2022-12-11T03:41:22;6.37;;;5.83;;
13014;SDS011;6573;57.696;11.950;2022-12-11T03:43:53;6.00;;;5.40;;
13014;SDS011;6573;57.696;11.950;2022-12-11T03:46:26;6.53;;;5.83;;
13014;SDS011;6573;57.696;11.950;2022-12-11T03:49:00;5.57;;;4.77;;
13014;SDS011;6573;57.696;11.950;2022-12-11T03:51:31;5.20;;;4.70;;
13014;SDS011;6573;57.696;11.950;2022-12-11T03:54:01;6.07;;;5.20;;
13014;SDS011;6573;57.696;11.950;2022-12-11T03:56:30;6.53;;;5.50;;
13014;SDS011;6573;57.696;11.950;2022-12-11T03:59:02;6.33;;;5.73;;
13014;SDS011;6573;57.696;11.950;2022-12-11T04:01:31;6.57;;;5.90;;
13014;SDS011;6573;57.696;11.950;2022-12-11T04:04:01;7.40;;;5.80;;
13014;SDS011;6573;57.696;11.950;2022-12-11T04:06:30;6.10;;;5.50;;
13014;SDS011;6573;57.696;11.950;2022-12-11T04:08:58;6.77;;;6.17;;
13014;SDS011;6573;57.696;11.950;2022-12-11T04:11:26;6.77;;;6.17;;
13014;SDS011;6573;57.696;11.950;2022-12-11T04:14:05;6.05;;;5.45;;
13014;SDS011;6573;57.696;11.950;2022-12-11T04:16:53;6.65;;;5.85;;
13014;SDS011;6573;57.696;11.950;2022-12-11T04:19:24;6.60;;;6.00;;
13014;SDS011;6573;57.696;11.950;2022-12-11T04:22:10;6.73;;;6.13;;
13014;SDS011;6573;57.696;11.950;2022-12-11T04:24:55;6.83;;;6.23;;
13014;SDS011;6573;57.696;11.950;2022-12-11T04:27:23;6.77;;;6.10;;
13014;SDS011;6573;57.696;11.950;2022-12-11T04:30:10;7.07;;;6.37;;
13014;SDS011;6573;57.696;11.950;2022-12-11T04:32:40;6.77;;;6.17;;
13014;SDS011;6573;57.696;11.950;2022-12-11T04:35:10;6.53;;;5.97;;
13014;SDS011;6573;57.696;11.950;2022-12-11T04:37:39;6.87;;;6.27;;
13014;SDS011;6573;57.696;11.950;2022-12-11T04:40:09;6.23;;;5.73;;
13014;SDS011;6573;57.696;11.950;2022-12-11T04:42:40;6.60;;;6.00;;
13014;SDS011;6573;57.696;11.950;2022-12-11T04:45:09;6.90;;;6.30;;
13014;SDS011;6573;57.696;11.950;2022-12-11T04:47:38;6.37;;;5.87;;
13014;SDS011;6573;57.696;11.950;2022-12-11T04:50:08;7.47;;;5.30;;
13014;SDS011;6573;57.696;11.950;2022-12-11T04:52:40;6.60;;;5.73;;
13014;SDS011;6573;57.696;11.950;2022-12-11T04:55:09;5.53;;;4.93;;
13014;SDS011;6573;57.696;11.950;2022-12-11T04:57:39;7.40;;;5.80;;
13014;SDS011;6573;57.696;11.950;2022-12-11T05:00:08;7.00;;;6.40;;
13014;SDS011;6573;57.696;11.950;2022-12-11T05:02:39;7.53;;;5.93;;
13014;SDS011;6573;57.696;11.950;2022-12-11T05:05:08;6.80;;;6.20;;
13014;SDS011;6573;57.696;11.950;2022-12-11T05:07:44;6.63;;;6.03;;
13014;SDS011;6573;57.696;11.950;2022-12-11T05:10:13;16.93;;;6.73;;
13014;SDS011;6573;57.696;11.950;2022-12-11T05:12:41;6.87;;;6.27;;
13014;SDS011;6573;57.696;11.950;2022-12-11T05:15:09;6.83;;;6.13;;
13014;SDS011;6573;57.696;11.950;2022-12-11T05:17:38;6.73;;;6.13;;
13014;SDS011;6573;57.696;11.950;2022-12-11T05:20:06;7.20;;;6.50;;
13014;SDS011;6573;57.696;11.950;2022-12-11T05:22:37;6.60;;;6.00;;
13014;SDS011;6573;57.696;11.950;2022-12-11T05:25:06;7.67;;;6.90;;
13014;SDS011;6573;57.696;11.950;2022-12-11T05:27:35;7.53;;;6.83;;
13014;SDS011;6573;57.696;11.950;2022-12-11T05:30:04;6.90;;;6.30;;
13014;SDS011;6573;57.696;11.950;2022-12-11T05:32:34;6.47;;;5.97;;
13014;SDS011;6573;57.696;11.950;2022-12-11T05:35:02;6.30;;;5.57;;
13014;SDS011;6573;57.696;11.950;2022-12-11T05:37:31;6.63;;;5.77;;
13014;SDS011;6573;57.696;11.950;2022-12-11T05:40:01;7.30;;;6.63;;
13014;SDS011;6573;57.696;11.950;2022-12-11T05:42:32;7.90;;;7.20;;
13014;SDS011;6573;57.696;11.950;2022-12-11T05:45:00;7.10;;;6.50;;
13014;SDS011;6573;57.696;11.950;2022-12-11T05:47:29;7.57;;;6.87;;
13014;SDS011;6573;57.696;11.950;2022-12-11T05:49:57;7.07;;;6.47;;
13014;SDS011;6573;57.696;11.950;2022-12-11T05:52:26;7.27;;;6.57;;
13014;SDS011;6573;57.696;11.950;2022-12-11T05:54:54;6.93;;;6.27;;
13014;SDS011;6573;57.696;11.950;2022-12-11T05:57:24;7.20;;;6.60;;
13014;SDS011;6573;57.696;11.950;2022-12-11T05:59:52;7.70;;;7.00;;
13014;SDS011;6573;57.696;11.950;2022-12-11T06:02:20;7.80;;;7.00;;
13014;SDS011;6573;57.696;11.950;2022-12-11T06:04:49;7.03;;;6.32;;
13014;SDS011;6573;57.696;11.950;2022-12-11T06:07:17;10.60;;;6.20;;
13014;SDS011;6573;57.696;11.950;2022-12-11T06:09:45;6.57;;;5.77;;
13014;SDS011;6573;57.696;11.950;2022-12-11T06:12:14;7.50;;;6.80;;
13014;SDS011;6573;57.696;11.950;2022-12-11T06:14:43;7.13;;;6.47;;
13014;SDS011;6573;57.696;11.950;2022-12-11T06:17:12;6.73;;;6.13;;
13014;SDS011;6573;57.696;11.950;2022-12-11T06:19:40;6.63;;;6.03;;
13014;SDS011;6573;57.696;11.950;2022-12-11T06:22:08;8.10;;;6.17;;
13014;SDS011;6573;57.696;11.950;2022-12-11T06:24:37;8.47;;;6.77;;
13014;SDS011;6573;57.696;11.950;2022-12-11T06:27:08;9.00;;;6.53;;
13014;SDS011;6573;57.696;11.950;2022-12-11T06:29:36;8.17;;;6.07;;
13014;SDS011;6573;57.696;11.950;2022-12-11T06:32:06;7.83;;;6.27;;
13014;SDS011;6573;57.696;11.950;2022-12-11T06:34:34;7.10;;;6.30;;
13014;SDS011;6573;57.696;11.950;2022-12-11T06:37:02;7.10;;;6.40;;
13014;SDS011;6573;57.696;11.950;2022-12-11T06:39:31;8.87;;;6.63;;
13014;SDS011;6573;57.696;11.950;2022-12-11T06:41:59;12.00;;;7.07;;
13014;SDS011;6573;57.696;11.950;2022-12-11T06:44:28;7.13;;;6.43;;
13014;SDS011;6573;57.696;11.950;2022-12-11T06:46:56;7.33;;;6.67;;
13014;SDS011;6573;57.696;11.950;2022-12-11T06:49:26;8.13;;;7.33;;
13014;SDS011;6573;57.696;11.950;2022-12-11T06:51:54;8.27;;;7.47;;
13014;SDS011;6573;57.696;11.950;2022-12-11T06:54:24;11.55;;;7.70;;
13014;SDS011;6573;57.696;11.950;2022-12-11T06:56:52;8.50;;;7.53;;
13014;SDS011;6573;57.696;11.950;2022-12-11T06:59:21;8.13;;;7.33;;
13014;SDS011;6573;57.696;11.950;2022-12-11T07:01:49;6.97;;;6.27;;
13014;SDS011;6573;57.696;11.950;2022-12-11T07:04:18;10.50;;;6.87;;
13014;SDS011;6573;57.696;11.950;2022-12-11T07:06:51;7.93;;;7.23;;
13014;SDS011;6573;57.696;11.950;2022-12-11T07:09:20;7.03;;;6.30;;
13014;SDS011;6573;57.696;11.950;2022-12-11T07:11:48;6.55;;;5.82;;
13014;SDS011;6573;57.696;11.950;2022-12-11T07:14:17;7.57;;;6.87;;
13014;SDS011;6573;57.696;11.950;2022-12-11T07:16:45;6.73;;;5.97;;
13014;SDS011;6573;57.696;11.950;2022-12-11T07:19:13;7.63;;;6.97;;
13014;SDS011;6573;57.696;11.950;2022-12-11T07:21:41;7.87;;;7.17;;
13014;SDS011;6573;57.696;11.950;2022-12-11T07:24:11;6.65;;;5.85;;
13014;SDS011;6573;57.696;11.950;2022-12-11T07:26:39;7.00;;;6.03;;
13014;SDS011;6573;57.696;11.950;2022-12-11T07:29:08;8.77;;;6.72;;
13014;SDS011;6573;57.696;11.950;2022-12-11T07:31:36;7.27;;;6.27;;
13014;SDS011;6573;57.696;11.950;2022-12-11T07:34:05;7.17;;;6.07;;
13014;SDS011;6573;57.696;11.950;2022-12-11T07:36:33;8.77;;;7.70;;
13014;SDS011;6573;57.696;11.950;2022-12-11T07:39:04;8.07;;;7.27;;
13014;SDS011;6573;57.696;11.950;2022-12-11T07:41:34;7.27;;;6.57;;
13014;SDS011;6573;57.696;11.950;2022-12-11T07:44:03;11.10;;;7.17;;
13014;SDS011;6573;57.696;11.950;2022-12-11T07:46:32;7.90;;;7.20;;
13014;SDS011;6573;57.696;11.950;2022-12-11T07:49:01;8.20;;;7.50;;
13014;SDS011;6573;57.696;11.950;2022-12-11T07:51:33;8.13;;;7.23;;
13014;SDS011;6573;57.696;11.950;2022-12-11T07:54:03;11.13;;;7.27;;
13014;SDS011;6573;57.696;11.950;2022-12-11T07:56:36;8.53;;;5.97;;
13014;SDS011;6573;57.696;11.950;2022-12-11T07:59:09;8.15;;;6.38;;
13014;SDS011;6573;57.696;11.950;2022-12-11T08:01:38;7.25;;;6.55;;
13014;SDS011;6573;57.696;11.950;2022-12-11T08:04:08;8.37;;;6.73;;
13014;SDS011;6573;57.696;11.950;2022-12-11T08:06:41;8.07;;;6.30;;
13014;SDS011;6573;57.696;11.950;2022-12-11T08:09:10;7.37;;;6.67;;
13014;SDS011;6573;57.696;11.950;2022-12-11T08:11:48;7.53;;;6.75;;
13014;SDS011;6573;57.696;11.950;2022-12-11T08:14:17;6.50;;;5.90;;
13014;SDS011;6573;57.696;11.950;2022-12-11T08:16:45;6.57;;;5.87;;
13014;SDS011;6573;57.696;11.950;2022-12-11T08:19:14;7.20;;;6.30;;
13014;SDS011;6573;57.696;11.950;2022-12-11T08:21:43;7.20;;;6.50;;
13014;SDS011;6573;57.696;11.950;2022-12-11T08:24:12;7.43;;;6.32;;
13014;SDS011;6573;57.696;11.950;2022-12-11T08:26:41;8.10;;;6.97;;
13014;SDS011;6573;57.696;11.950;2022-12-11T08:29:11;7.20;;;6.37;;
13014;SDS011;6573;57.696;11.950;2022-12-11T08:31:40;7.00;;;6.40;;
13014;SDS011;6573;57.696;11.950;2022-12-11T08:34:09;7.00;;;6.40;;
13014;SDS011;6573;57.696;11.950;2022-12-11T08:36:39;7.00;;;6.30;;
13014;SDS011;6573;57.696;11.950;2022-12-11T08:39:08;7.13;;;6.43;;
13014;SDS011;6573;57.696;11.950;2022-12-11T08:41:36;6.47;;;5.87;;
13014;SDS011;6573;57.696;11.950;2022-12-11T08:44:08;7.83;;;7.13;;
13014;SDS011;6573;57.696;11.950;2022-12-11T08:46:42;7.33;;;6.57;;
13014;SDS011;6573;57.696;11.950;2022-12-11T08:49:10;6.67;;;6.07;;
13014;SDS011;6573;57.696;11.950;2022-12-11T08:51:39;6.10;;;5.50;;
13014;SDS011;6573;57.696;11.950;2022-12-11T08:54:07;6.63;;;6.10;;
13014;SDS011;6573;57.696;11.950;2022-12-11T08:56:36;7.50;;;6.90;;
13014;SDS011;6573;57.696;11.950;2022-12-11T08:59:04;6.90;;;6.30;;
13014;SDS011;6573;57.696;11.950;2022-12-11T09:01:34;7.27;;;5.93;;
13014;SDS011;6573;57.696;11.950;2022-12-11T09:04:02;6.73;;;5.90;;
13014;SDS011;6573;57.696;11.950;2022-12-11T09:06:31;7.17;;;5.73;;
13014;SDS011;6573;57.696;11.950;2022-12-11T09:09:00;7.57;;;6.15;;
13014;SDS011;6573;57.696;11.950;2022-12-11T09:11:29;7.43;;;6.73;;
13014;SDS011;6573;57.696;11.950;2022-12-11T09:14:00;6.93;;;6.27;;
13014;SDS011;6573;57.696;11.950;2022-12-11T09:16:35;6.73;;;5.83;;
13014;SDS011;6573;57.696;11.950;2022-12-11T09:19:06;6.43;;;5.77;;
13014;SDS011;6573;57.696;11.950;2022-12-11T09:21:35;7.30;;;6.70;;
13014;SDS011;6573;57.696;11.950;2022-12-11T09:24:04;7.90;;;6.33;;
13014;SDS011;6573;57.696;11.950;2022-12-11T09:26:33;6.80;;;6.20;;
13014;SDS011;6573;57.696;11.950;2022-12-11T09:29:02;7.10;;;6.50;;
13014;SDS011;6573;57.696;11.950;2022-12-11T09:31:32;6.80;;;6.20;;
13014;SDS011;6573;57.696;11.950;2022-12-11T09:34:04;7.40;;;6.73;;
13014;SDS011;6573;57.696;11.950;2022-12-11T09:36:34;7.40;;;6.80;;
13014;SDS011;6573;57.696;11.950;2022-12-11T09:39:05;7.50;;;6.80;;
13014;SDS011;6573;57.696;11.950;2022-12-11T09:41:36;8.57;;;7.67;;
13014;SDS011;6573;57.696;11.950;2022-12-11T09:44:13;8.20;;;7.40;;
13014;SDS011;6573;57.696;11.950;2022-12-11T09:46:47;8.20;;;7.50;;
13014;SDS011;6573;57.696;11.950;2022-12-11T09:49:20;8.07;;;7.37;;
13014;SDS011;6573;57.696;11.950;2022-12-11T09:51:55;7.83;;;7.10;;
13014;SDS011;6573;57.696;11.950;2022-12-11T09:54:31;9.07;;;8.17;;
13014;SDS011;6573;57.696;11.950;2022-12-11T09:57:02;7.90;;;7.20;;
13014;SDS011;6573;57.696;11.950;2022-12-11T09:59:49;8.68;;;7.88;;
13014;SDS011;6573;57.696;11.950;2022-12-11T10:02:36;7.73;;;7.03;;
13014;SDS011;6573;57.696;11.950;2022-12-11T10:05:16;8.30;;;7.57;;
13014;SDS011;6573;57.696;11.950;2022-12-11T10:07:50;7.53;;;6.63;;
13014;SDS011;6573;57.696;11.950;2022-12-11T10:10:28;7.57;;;6.97;;
13014;SDS011;6573;57.696;11.950;2022-12-11T10:13:06;7.83;;;6.13;;
13014;SDS011;6573;57.696;11.950;2022-12-11T10:15:46;7.00;;;6.30;;
13014;SDS011;6573;57.696;11.950;2022-12-11T10:18:20;6.68;;;6.05;;
13014;SDS011;6573;57.696;11.950;2022-12-11T10:20:51;7.00;;;6.30;;
13014;SDS011;6573;57.696;11.950;2022-12-11T10:23:23;6.93;;;6.33;;
13014;SDS011;6573;57.696;11.950;2022-12-11T10:26:02;6.63;;;6.03;;
13014;SDS011;6573;57.696;11.950;2022-12-11T10:28:33;7.20;;;6.50;;
13014;SDS011;6573;57.696;11.950;2022-12-11T10:31:04;7.27;;;6.37;;
13014;SDS011;6573;57.696;11.950;2022-12-11T10:33:43;6.60;;;6.00;;
13014;SDS011;6573;57.696;11.950;2022-12-11T10:36:19;6.83;;;6.23;;
13014;SDS011;6573;57.696;11.950;2022-12-11T10:38:52;6.60;;;6.00;;
13014;SDS011;6573;57.696;11.950;2022-12-11T10:41:21;6.77;;;6.17;;
13014;SDS011;6573;57.696;11.950;2022-12-11T10:43:51;6.80;;;6.17;;
13014;SDS011;6573;57.696;11.950;2022-12-11T10:46:21;6.47;;;5.90;;
13014;SDS011;6573;57.696;11.950;2022-12-11T10:48:53;7.00;;;6.40;;
13014;SDS011;6573;57.696;11.950;2022-12-11T10:51:23;6.73;;;6.13;;
13014;SDS011;6573;57.696;11.950;2022-12-11T10:53:54;6.80;;;6.20;;
13014;SDS011;6573;57.696;11.950;2022-12-11T10:56:30;7.57;;;6.87;;
13014;SDS011;6573;57.696;11.950;2022-12-11T10:59:00;7.00;;;6.30;;
13014;SDS011;6573;57.696;11.950;2022-12-11T11:01:29;6.80;;;6.17;;
13014;SDS011;6573;57.696;11.950;2022-12-11T11:04:01;6.83;;;6.10;;
13014;SDS011;6573;57.696;11.950;2022-12-11T11:06:32;6.50;;;5.90;;
13014;SDS011;6573;57.696;11.950;2022-12-11T11:09:02;6.17;;;5.57;;
13014;SDS011;6573;57.696;11.950;2022-12-11T11:11:31;6.90;;;5.40;;
13014;SDS011;6573;57.696;11.950;2022-12-11T11:14:06;6.00;;;5.40;;
13014;SDS011;6573;57.696;11.950;2022-12-11T11:16:40;6.30;;;5.70;;
13014;SDS011;6573;57.696;11.950;2022-12-11T11:19:18;6.40;;;5.80;;
13014;SDS011;6573;57.696;11.950;2022-12-11T11:21:50;6.90;;;6.30;;
13014;SDS011;6573;57.696;11.950;2022-12-11T11:24:22;7.73;;;5.97;;
13014;SDS011;6573;57.696;11.950;2022-12-11T11:26:54;7.50;;;6.23;;
13014;SDS011;6573;57.696;11.950;2022-12-11T11:29:39;8.63;;;7.57;;
13014;SDS011;6573;57.696;11.950;2022-12-11T11:32:14;7.67;;;6.87;;
13014;SDS011;6573;57.696;11.950;2022-12-11T11:34:48;7.37;;;6.70;;
13014;SDS011;6573;57.696;11.950;2022-12-11T11:37:28;7.73;;;6.93;;
13014;SDS011;6573;57.696;11.950;2022-12-11T11:40:00;7.67;;;6.97;;
13014;SDS011;6573;57.696;11.950;2022-12-11T11:42:36;8.03;;;7.23;;
13014;SDS011;6573;57.696;11.950;2022-12-11T11:45:13;8.67;;;7.77;;
13014;SDS011;6573;57.696;11.950;2022-12-11T11:47:49;8.07;;;7.27;;
13014;SDS011;6573;57.696;11.950;2022-12-11T11:50:27;8.17;;;7.33;;
13014;SDS011;6573;57.696;11.950;2022-12-11T11:53:01;7.90;;;7.10;;
13014;SDS011;6573;57.696;11.950;2022-12-11T11:55:36;8.93;;;7.27;;
13014;SDS011;6573;57.696;11.950;2022-12-11T11:58:12;10.30;;;7.47;;
13014;SDS011;6573;57.696;11.950;2022-12-11T12:00:44;8.07;;;7.20;;
13014;SDS011;6573;57.696;11.950;2022-12-11T12:03:14;9.10;;;7.87;;
13014;SDS011;6573;57.696;11.950;2022-12-11T12:05:48;9.37;;;7.10;;
13014;SDS011;6573;57.696;11.950;2022-12-11T12:08:25;9.07;;;7.60;;
13014;SDS011;6573;57.696;11.950;2022-12-11T12:11:06;9.00;;;7.90;;
13014;SDS011;6573;57.696;11.950;2022-12-11T12:13:48;8.03;;;7.07;;
13014;SDS011;6573;57.696;11.950;2022-12-11T12:16:29;9.17;;;8.20;;
13014;SDS011;6573;57.696;11.950;2022-12-11T12:19:22;9.07;;;7.67;;
13014;SDS011;6573;57.696;11.950;2022-12-11T12:22:04;8.33;;;7.43;;
13014;SDS011;6573;57.696;11.950;2022-12-11T12:24:43;9.10;;;7.83;;
13014;SDS011;6573;57.696;11.950;2022-12-11T12:27:20;8.17;;;7.37;;
13014;SDS011;6573;57.696;11.950;2022-12-11T12:30:16;8.30;;;7.30;;
13014;SDS011;6573;57.696;11.950;2022-12-11T12:32:58;9.37;;;7.73;;
13014;SDS011;6573;57.696;11.950;2022-12-11T12:35:39;8.80;;;7.90;;
13014;SDS011;6573;57.696;11.950;2022-12-11T12:38:19;10.73;;;7.97;;
13014;SDS011;6573;57.696;11.950;2022-12-11T12:40:57;10.10;;;8.00;;
13014;SDS011;6573;57.696;11.950;2022-12-11T12:43:46;9.90;;;8.33;;
13014;SDS011;6573;57.696;11.950;2022-12-11T12:46:27;9.37;;;8.37;;
13014;SDS011;6573;57.696;11.950;2022-12-11T12:49:07;9.63;;;8.30;;
13014;SDS011;6573;57.696;11.950;2022-12-11T12:51:39;8.50;;;7.57;;
13014;SDS011;6573;57.696;11.950;2022-12-11T12:54:13;9.63;;;8.00;;
13014;SDS011;6573;57.696;11.950;2022-12-11T12:56:44;16.10;;;12.77;;
13014;SDS011;6573;57.696;11.950;2022-12-11T12:59:18;9.37;;;8.00;;
13014;SDS011;6573;57.696;11.950;2022-12-11T13:01:49;8.57;;;7.20;;
13014;SDS011;6573;57.696;11.950;2022-12-11T13:07:25;7.53;;;6.77;;
13014;SDS011;6573;57.696;11.950;2022-12-11T13:10:02;8.33;;;6.60;;
13014;SDS011;6573;57.696;11.950;2022-12-11T13:12:43;7.17;;;6.20;;
13014;SDS011;6573;57.696;11.950;2022-12-11T13:15:23;6.93;;;6.23;;
13014;SDS011;6573;57.696;11.950;2022-12-11T13:18:00;6.63;;;5.93;;
13014;SDS011;6573;57.696;11.950;2022-12-11T13:20:30;18.07;;;9.80;;
13014;SDS011;6573;57.696;11.950;2022-12-11T13:25:56;7.03;;;6.33;;
13014;SDS011;6573;57.696;11.950;2022-12-11T13:28:27;9.03;;;6.50;;
13014;SDS011;6573;57.696;11.950;2022-12-11T13:30:59;9.50;;;7.20;;
13014;SDS011;6573;57.696;11.950;2022-12-11T13:33:29;7.50;;;6.23;;
13014;SDS011;6573;57.696;11.950;2022-12-11T13:36:17;7.70;;;5.90;;
13014;SDS011;6573;57.696;11.950;2022-12-11T13:38:53;7.07;;;6.20;;
13014;SDS011;6573;57.696;11.950;2022-12-11T13:41:25;7.07;;;5.90;;
13014;SDS011;6573;57.696;11.950;2022-12-11T13:43:54;7.27;;;6.03;;
13014;SDS011;6573;57.696;11.950;2022-12-11T13:46:25;7.50;;;6.70;;
13014;SDS011;6573;57.696;11.950;2022-12-11T13:48:56;10.33;;;7.90;;
13014;SDS011;6573;57.696;11.950;2022-12-11T13:51:28;10.73;;;7.87;;
13014;SDS011;6573;57.696;11.950;2022-12-11T13:54:04;10.23;;;8.03;;
13014;SDS011;6573;57.696;11.950;2022-12-11T13:56:53;9.37;;;7.27;;
13014;SDS011;6573;57.696;11.950;2022-12-11T13:59:27;11.83;;;7.60;;
13014;SDS011;6573;57.696;11.950;2022-12-11T14:01:59;8.13;;;6.23;;
13014;SDS011;6573;57.696;11.950;2022-12-11T14:04:32;6.17;;;5.30;;
13014;SDS011;6573;57.696;11.950;2022-12-11T14:07:05;7.47;;;5.50;;
13014;SDS011;6573;57.696;11.950;2022-12-11T14:09:34;6.90;;;5.37;;
13014;SDS011;6573;57.696;11.950;2022-12-11T14:12:11;5.43;;;4.93;;
13014;SDS011;6573;57.696;11.950;2022-12-11T14:14:44;6.13;;;4.87;;
13014;SDS011;6573;57.696;11.950;2022-12-11T14:17:19;7.03;;;5.00;;
13014;SDS011;6573;57.696;11.950;2022-12-11T14:19:51;6.07;;;4.80;;
13014;SDS011;6573;57.696;11.950;2022-12-11T14:22:21;6.23;;;4.90;;
13014;SDS011;6573;57.696;11.950;2022-12-11T14:24:51;5.80;;;5.20;;
13014;SDS011;6573;57.696;11.950;2022-12-11T14:27:23;8.07;;;5.47;;
13014;SDS011;6573;57.696;11.950;2022-12-11T14:29:52;7.67;;;4.93;;
13014;SDS011;6573;57.696;11.950;2022-12-11T14:32:24;6.07;;;5.40;;
13014;SDS011;6573;57.696;11.950;2022-12-11T14:34:57;5.43;;;4.90;;
13014;SDS011;6573;57.696;11.950;2022-12-11T14:37:28;6.80;;;5.23;;
13014;SDS011;6573;57.696;11.950;2022-12-11T14:39:59;7.00;;;5.33;;
13014;SDS011;6573;57.696;11.950;2022-12-11T14:42:31;6.07;;;5.40;;
13014;SDS011;6573;57.696;11.950;2022-12-11T14:45:04;6.50;;;5.57;;
13014;SDS011;6573;57.696;11.950;2022-12-11T14:47:40;6.43;;;5.70;;
13014;SDS011;6573;57.696;11.950;2022-12-11T14:50:12;6.13;;;5.43;;
13014;SDS011;6573;57.696;11.950;2022-12-11T14:52:46;5.80;;;5.20;;
13014;SDS011;6573;57.696;11.950;2022-12-11T14:55:19;10.90;;;7.10;;
13014;SDS011;6573;57.696;11.950;2022-12-11T14:57:51;5.93;;;5.10;;
13014;SDS011;6573;57.696;11.950;2022-12-11T15:00:24;6.53;;;5.27;;
13014;SDS011;6573;57.696;11.950;2022-12-11T15:02:55;6.23;;;5.53;;
13014;SDS011;6573;57.696;11.950;2022-12-11T15:05:25;6.27;;;5.67;;
13014;SDS011;6573;57.696;11.950;2022-12-11T15:07:55;6.33;;;5.73;;
13014;SDS011;6573;57.696;11.950;2022-12-11T15:10:27;9.13;;;5.87;;
13014;SDS011;6573;57.696;11.950;2022-12-11T15:13:03;6.90;;;5.87;;
13014;SDS011;6573;57.696;11.950;2022-12-11T15:15:36;6.33;;;5.70;;
13014;SDS011;6573;57.696;11.950;2022-12-11T15:18:19;7.07;;;5.67;;
13014;SDS011;6573;57.696;11.950;2022-12-11T15:20:50;6.47;;;5.80;;
13014;SDS011;6573;57.696;11.950;2022-12-11T15:23:21;7.27;;;5.00;;